Thunder radar more information blitzortung!


Rain radar  rain snow radar



Ingen spesiell oppmerksomhet nødvendig.    Det er ingen advarsler

Nearby METAR Reports

   
ENZV - Stavanger
Oppdatert: Oct 16 2019 6:50 pm
For det meste Overskyet  
For det meste Overskyet  
   Vind: SØ 3.1 m/s
Vind: SØ 3.1 m/s
Temperatur: 12°C
Duggpunkt: 9°C
Luftfuktighet: 82%
Barometer: 1004 hPa
Skyer: Mostly Cloudy
Sikt: More than 10 km
Detaljer skyer: Noen skyer 2000 ft,
For det meste Overskyet 4200 ft
ENZV 161650Z 13006KT 9999 FEW020 BKN042 12/09 Q1004 NOSIG
ENCN - Kristiansand
Oppdatert: Oct 16 2019 6:50 pm
lett yr, Dis, Overskyet  
lett yr, Dis, Overskyet  
   Vind: NØ 3.1 m/s
Vind: NØ 3.1 m/s
Temperatur: 8°C
Wind Chill: 6°C
Duggpunkt: 8°C
Luftfuktighet: 100%
Barometer: 1006 hPa
Skyer: Overcast
Sikt: 4 km
Detaljer skyer: Overskyet 1300 ft
ENCN 161650Z 05006KT 3600 -DZ BR VV013 08/08 Q1006
ENBR - Bergen
Oppdatert: Oct 16 2019 6:50 pm
Lokale byger, For det meste Overskyet  
Lokale byger, For det meste Overskyet  
   Vind: SSV 3.1 m/s
Vind: SSV 3.1 m/s
Temperatur: 11°C
Duggpunkt: 9°C
Luftfuktighet: 88%
Barometer: 1004 hPa
Skyer: Mostly Cloudy
Sikt: More than 10 km
Detaljer skyer: Noen skyer 600 ft,
Delvis overskyet 2300 ft,
For det meste Overskyet 2900 ft
ENBR 161650Z 20006KT 9999 VCSH FEW006 SCT023 BKN029 11/09 Q1004 NOSIG RMK WIND 1200FT 15013KT
ENGM - Oslo
Oppdatert: Oct 16 2019 6:50 pm
Lett Regn, For det meste Overskyet  
Lett Regn, For det meste Overskyet  
   Vind: Nord 3.6 m/s
Vind: Nord 3.6 m/s
Temperatur: 6°C
Wind Chill: 3°C
Duggpunkt: 6°C
Luftfuktighet: 100%
Barometer: 1007 hPa
Skyer: Mostly Cloudy
Sikt: More than 10 km
Detaljer skyer: Noen skyer 500 ft,
For det meste Overskyet 1300 ft
ENGM 161650Z 01007KT 9999 -RA FEW005 BKN013 06/06 Q1007 TEMPO BKN015
ENVA - Trondheim
Oppdatert: Oct 16 2019 6:50 pm
Lett Regn, For det meste Overskyet  
Lett Regn, For det meste Overskyet  
   Vind: ØSØ 6.7 m/s
Vind: ØSØ 6.7 m/s
Temperatur: 8°C
Wind Chill: 4°C
Duggpunkt: 4°C
Luftfuktighet: 76%
Barometer: 1008 hPa
Skyer: Mostly Cloudy
Sikt: More than 10 km
Detaljer skyer: Noen skyer 4200 ft,
For det meste Overskyet 5500 ft
ENVA 161650Z 12013KT 9999 -RA FEW042 BKN055 08/04 Q1008 NOSIG RMK WIND 670FT 15026KT
ENTC - Tromsø
Oppdatert: Oct 16 2019 6:50 pm
Klart  
Klart  
   Vind: ØSØ 1 m/s
Vind: ØSØ 1 m/s
Temperatur: -1°C
Duggpunkt: -2°C
Luftfuktighet: 93%
Barometer: 1017 hPa
Sikt: More than 10 km
Detaljer skyer: Klart ft
ENTC 161650Z 11002KT CAVOK M01/M02 Q1017 NOSIG RMK WIND 2600FT 32002KT

Script utviklet av  Saratoga-weather.org Tilpasset for tamplaten av  Weerstation Leuven

Du finner vår vær info også på:

European Weather Network

WeatherCloud

Weather Underground

AWEKAS

HAMweather, WeatherForYou, PWS Weather

Utrustning vi bruker:

vær-station
Davis VP2

vær-programmet
Weather Display

Davis VP2

Weather Display